sensor_id;sensor_type;location;lat;lon;timestamp;pressure;altitude;pressure_sealevel;temperature
21336;BMP180;10826;52.536;13.432;2022-09-01T00:01:42;101820.00;;;20.80
21336;BMP180;10826;52.536;13.432;2022-09-01T00:04:13;101812.00;;;20.80
21336;BMP180;10826;52.536;13.432;2022-09-01T00:06:41;101802.00;;;20.80
21336;BMP180;10826;52.536;13.432;2022-09-01T00:09:11;101809.00;;;20.80
21336;BMP180;10826;52.536;13.432;2022-09-01T00:11:40;101811.00;;;20.80
21336;BMP180;10826;52.536;13.432;2022-09-01T00:14:08;101824.00;;;20.80
21336;BMP180;10826;52.536;13.432;2022-09-01T00:16:35;101813.00;;;20.80
21336;BMP180;10826;52.536;13.432;2022-09-01T00:19:01;101820.00;;;20.80
21336;BMP180;10826;52.536;13.432;2022-09-01T00:21:35;101805.00;;;20.80
21336;BMP180;10826;52.536;13.432;2022-09-01T00:24:01;101804.00;;;20.80
21336;BMP180;10826;52.536;13.432;2022-09-01T00:26:27;101826.00;;;20.80
21336;BMP180;10826;52.536;13.432;2022-09-01T00:28:53;101817.00;;;20.70
21336;BMP180;10826;52.536;13.432;2022-09-01T00:31:21;101801.00;;;20.70
21336;BMP180;10826;52.536;13.432;2022-09-01T00:33:48;101819.00;;;20.70
21336;BMP180;10826;52.536;13.432;2022-09-01T00:36:15;101818.00;;;20.70
21336;BMP180;10826;52.536;13.432;2022-09-01T00:38:42;101811.00;;;20.60
21336;BMP180;10826;52.536;13.432;2022-09-01T00:41:09;101812.00;;;20.60
21336;BMP180;10826;52.536;13.432;2022-09-01T00:43:47;101818.00;;;20.70
21336;BMP180;10826;52.536;13.432;2022-09-01T00:46:31;101802.00;;;20.70
21336;BMP180;10826;52.536;13.432;2022-09-01T00:49:09;101794.00;;;20.70
21336;BMP180;10826;52.536;13.432;2022-09-01T00:51:38;101811.00;;;20.60
21336;BMP180;10826;52.536;13.432;2022-09-01T00:54:11;101808.00;;;20.60
21336;BMP180;10826;52.536;13.432;2022-09-01T00:56:40;101814.00;;;20.60
21336;BMP180;10826;52.536;13.432;2022-09-01T00:59:08;101812.00;;;20.60
21336;BMP180;10826;52.536;13.432;2022-09-01T01:01:36;101807.00;;;20.60
21336;BMP180;10826;52.536;13.432;2022-09-01T01:04:05;101811.00;;;20.50
21336;BMP180;10826;52.536;13.432;2022-09-01T01:06:47;101815.00;;;20.50
21336;BMP180;10826;52.536;13.432;2022-09-01T01:09:21;101811.00;;;20.50
21336;BMP180;10826;52.536;13.432;2022-09-01T01:11:47;101787.00;;;20.40
21336;BMP180;10826;52.536;13.432;2022-09-01T01:14:15;101799.00;;;20.40
21336;BMP180;10826;52.536;13.432;2022-09-01T01:16:47;101797.00;;;20.40
21336;BMP180;10826;52.536;13.432;2022-09-01T01:19:40;101812.00;;;20.40
21336;BMP180;10826;52.536;13.432;2022-09-01T01:22:38;101805.00;;;20.30
21336;BMP180;10826;52.536;13.432;2022-09-01T01:25:25;101810.00;;;20.30
21336;BMP180;10826;52.536;13.432;2022-09-01T01:28:05;101817.00;;;20.30
21336;BMP180;10826;52.536;13.432;2022-09-01T01:30:32;101794.00;;;20.20
21336;BMP180;10826;52.536;13.432;2022-09-01T01:33:00;101793.00;;;20.20
21336;BMP180;10826;52.536;13.432;2022-09-01T01:35:27;101801.00;;;20.10
21336;BMP180;10826;52.536;13.432;2022-09-01T01:37:54;101812.00;;;20.10
21336;BMP180;10826;52.536;13.432;2022-09-01T01:40:20;101801.00;;;20.10
21336;BMP180;10826;52.536;13.432;2022-09-01T01:42:52;101819.00;;;20.10
21336;BMP180;10826;52.536;13.432;2022-09-01T01:45:23;101801.00;;;20.10
21336;BMP180;10826;52.536;13.432;2022-09-01T01:47:51;101807.00;;;20.00
21336;BMP180;10826;52.536;13.432;2022-09-01T01:50:30;101807.00;;;20.00
21336;BMP180;10826;52.536;13.432;2022-09-01T01:53:06;101790.00;;;20.00
21336;BMP180;10826;52.536;13.432;2022-09-01T01:55:32;101803.00;;;20.00
21336;BMP180;10826;52.536;13.432;2022-09-01T01:57:59;101799.00;;;20.00
21336;BMP180;10826;52.536;13.432;2022-09-01T02:00:31;101790.00;;;20.00
21336;BMP180;10826;52.536;13.432;2022-09-01T02:03:00;101785.00;;;20.00
21336;BMP180;10826;52.536;13.432;2022-09-01T02:05:32;101793.00;;;20.00
21336;BMP180;10826;52.536;13.432;2022-09-01T02:08:05;101799.00;;;19.90
21336;BMP180;10826;52.536;13.432;2022-09-01T02:10:37;101787.00;;;19.90
21336;BMP180;10826;52.536;13.432;2022-09-01T02:13:05;101782.00;;;19.80
21336;BMP180;10826;52.536;13.432;2022-09-01T02:15:39;101808.00;;;19.80
21336;BMP180;10826;52.536;13.432;2022-09-01T02:18:19;101799.00;;;19.80
21336;BMP180;10826;52.536;13.432;2022-09-01T02:20:47;101808.00;;;19.70
21336;BMP180;10826;52.536;13.432;2022-09-01T02:23:16;101822.00;;;19.70
21336;BMP180;10826;52.536;13.432;2022-09-01T02:25:45;101805.00;;;19.60
21336;BMP180;10826;52.536;13.432;2022-09-01T02:28:13;101802.00;;;19.70
21336;BMP180;10826;52.536;13.432;2022-09-01T02:30:45;101798.00;;;19.60
21336;BMP180;10826;52.536;13.432;2022-09-01T02:33:15;101810.00;;;19.70
21336;BMP180;10826;52.536;13.432;2022-09-01T02:35:53;101802.00;;;19.60
21336;BMP180;10826;52.536;13.432;2022-09-01T02:38:20;101793.00;;;19.60
21336;BMP180;10826;52.536;13.432;2022-09-01T02:40:52;101802.00;;;19.60
21336;BMP180;10826;52.536;13.432;2022-09-01T02:43:20;101791.00;;;19.50
21336;BMP180;10826;52.536;13.432;2022-09-01T02:45:48;101795.00;;;19.50
21336;BMP180;10826;52.536;13.432;2022-09-01T02:48:32;101787.00;;;19.50
21336;BMP180;10826;52.536;13.432;2022-09-01T02:51:05;101782.00;;;19.40
21336;BMP180;10826;52.536;13.432;2022-09-01T02:53:34;101793.00;;;19.40
21336;BMP180;10826;52.536;13.432;2022-09-01T02:56:04;101796.00;;;19.30
21336;BMP180;10826;52.536;13.432;2022-09-01T02:58:35;101796.00;;;19.20
21336;BMP180;10826;52.536;13.432;2022-09-01T03:01:16;101797.00;;;19.10
21336;BMP180;10826;52.536;13.432;2022-09-01T03:03:49;101779.00;;;19.10
21336;BMP180;10826;52.536;13.432;2022-09-01T03:06:16;101797.00;;;19.00
21336;BMP180;10826;52.536;13.432;2022-09-01T03:08:46;101793.00;;;19.00
21336;BMP180;10826;52.536;13.432;2022-09-01T03:11:12;101790.00;;;18.90
21336;BMP180;10826;52.536;13.432;2022-09-01T03:13:39;101794.00;;;18.80
21336;BMP180;10826;52.536;13.432;2022-09-01T03:16:06;101786.00;;;18.80
21336;BMP180;10826;52.536;13.432;2022-09-01T03:18:34;101796.00;;;18.80
21336;BMP180;10826;52.536;13.432;2022-09-01T03:21:00;101794.00;;;18.80
21336;BMP180;10826;52.536;13.432;2022-09-01T03:23:29;101790.00;;;18.80
21336;BMP180;10826;52.536;13.432;2022-09-01T03:26:00;101771.00;;;18.70
21336;BMP180;10826;52.536;13.432;2022-09-01T03:28:26;101764.00;;;18.70
21336;BMP180;10826;52.536;13.432;2022-09-01T03:30:55;101777.00;;;18.70
21336;BMP180;10826;52.536;13.432;2022-09-01T03:33:24;101774.00;;;18.60
21336;BMP180;10826;52.536;13.432;2022-09-01T03:35:50;101778.00;;;18.60
21336;BMP180;10826;52.536;13.432;2022-09-01T03:38:16;101789.00;;;18.60
21336;BMP180;10826;52.536;13.432;2022-09-01T03:40:57;101786.00;;;18.60
21336;BMP180;10826;52.536;13.432;2022-09-01T03:43:30;101788.00;;;18.50
21336;BMP180;10826;52.536;13.432;2022-09-01T03:45:58;101775.00;;;18.60
21336;BMP180;10826;52.536;13.432;2022-09-01T03:48:28;101772.00;;;18.60
21336;BMP180;10826;52.536;13.432;2022-09-01T03:50:56;101786.00;;;18.60
21336;BMP180;10826;52.536;13.432;2022-09-01T03:53:30;101789.00;;;18.60
21336;BMP180;10826;52.536;13.432;2022-09-01T03:55:56;101775.00;;;18.60
21336;BMP180;10826;52.536;13.432;2022-09-01T03:58:23;101794.00;;;18.60
21336;BMP180;10826;52.536;13.432;2022-09-01T04:00:54;101766.00;;;18.50
21336;BMP180;10826;52.536;13.432;2022-09-01T04:03:30;101760.00;;;18.40
21336;BMP180;10826;52.536;13.432;2022-09-01T04:05:59;101768.00;;;18.30
21336;BMP180;10826;52.536;13.432;2022-09-01T04:08:26;101753.00;;;18.20
21336;BMP180;10826;52.536;13.432;2022-09-01T04:10:59;101780.00;;;18.20
21336;BMP180;10826;52.536;13.432;2022-09-01T04:13:34;101754.00;;;18.20
21336;BMP180;10826;52.536;13.432;2022-09-01T04:16:01;101771.00;;;18.10
21336;BMP180;10826;52.536;13.432;2022-09-01T04:18:27;101793.00;;;18.10
21336;BMP180;10826;52.536;13.432;2022-09-01T04:20:58;101753.00;;;18.00
21336;BMP180;10826;52.536;13.432;2022-09-01T04:23:33;101784.00;;;18.00
21336;BMP180;10826;52.536;13.432;2022-09-01T04:26:09;101749.00;;;17.90
21336;BMP180;10826;52.536;13.432;2022-09-01T04:28:46;101764.00;;;17.80
21336;BMP180;10826;52.536;13.432;2022-09-01T04:31:20;101775.00;;;17.80
21336;BMP180;10826;52.536;13.432;2022-09-01T04:33:50;101782.00;;;17.70
21336;BMP180;10826;52.536;13.432;2022-09-01T04:36:25;101787.00;;;17.70
21336;BMP180;10826;52.536;13.432;2022-09-01T04:38:58;101782.00;;;17.70
21336;BMP180;10826;52.536;13.432;2022-09-01T04:41:31;101787.00;;;17.80
21336;BMP180;10826;52.536;13.432;2022-09-01T04:44:00;101780.00;;;17.80
21336;BMP180;10826;52.536;13.432;2022-09-01T04:46:33;101788.00;;;17.70
21336;BMP180;10826;52.536;13.432;2022-09-01T04:49:03;101784.00;;;17.70
21336;BMP180;10826;52.536;13.432;2022-09-01T04:51:42;101779.00;;;17.70
21336;BMP180;10826;52.536;13.432;2022-09-01T04:54:10;101765.00;;;17.70
21336;BMP180;10826;52.536;13.432;2022-09-01T04:56:43;101774.00;;;17.70
21336;BMP180;10826;52.536;13.432;2022-09-01T04:59:13;101763.00;;;17.70
21336;BMP180;10826;52.536;13.432;2022-09-01T05:01:40;101784.00;;;17.70
21336;BMP180;10826;52.536;13.432;2022-09-01T05:04:18;101792.00;;;17.70
21336;BMP180;10826;52.536;13.432;2022-09-01T05:06:52;101777.00;;;17.70
21336;BMP180;10826;52.536;13.432;2022-09-01T05:09:23;101768.00;;;17.70
21336;BMP180;10826;52.536;13.432;2022-09-01T05:11:51;101793.00;;;17.70
21336;BMP180;10826;52.536;13.432;2022-09-01T05:14:17;101792.00;;;17.70
21336;BMP180;10826;52.536;13.432;2022-09-01T05:16:45;101782.00;;;17.60
21336;BMP180;10826;52.536;13.432;2022-09-01T05:19:12;101784.00;;;17.70
21336;BMP180;10826;52.536;13.432;2022-09-01T05:21:44;101784.00;;;17.70
21336;BMP180;10826;52.536;13.432;2022-09-01T05:24:18;101792.00;;;17.70
21336;BMP180;10826;52.536;13.432;2022-09-01T05:26:46;101757.00;;;17.60
21336;BMP180;10826;52.536;13.432;2022-09-01T05:29:16;101789.00;;;17.70
21336;BMP180;10826;52.536;13.432;2022-09-01T05:31:47;101783.00;;;17.80
21336;BMP180;10826;52.536;13.432;2022-09-01T05:34:15;101772.00;;;17.70
21336;BMP180;10826;52.536;13.432;2022-09-01T05:36:45;101787.00;;;17.70
21336;BMP180;10826;52.536;13.432;2022-09-01T05:39:15;101783.00;;;17.80
21336;BMP180;10826;52.536;13.432;2022-09-01T05:41:42;101774.00;;;17.80
21336;BMP180;10826;52.536;13.432;2022-09-01T05:44:09;101743.00;;;17.90
21336;BMP180;10826;52.536;13.432;2022-09-01T05:46:37;101789.00;;;17.90
21336;BMP180;10826;52.536;13.432;2022-09-01T05:49:05;101801.00;;;17.90
21336;BMP180;10826;52.536;13.432;2022-09-01T05:51:33;101790.00;;;18.00
21336;BMP180;10826;52.536;13.432;2022-09-01T05:54:02;101794.00;;;18.10
21336;BMP180;10826;52.536;13.432;2022-09-01T05:56:29;101797.00;;;18.10
21336;BMP180;10826;52.536;13.432;2022-09-01T05:58:55;101788.00;;;18.20
21336;BMP180;10826;52.536;13.432;2022-09-01T06:01:27;101797.00;;;18.30
21336;BMP180;10826;52.536;13.432;2022-09-01T06:03:56;101780.00;;;18.30
21336;BMP180;10826;52.536;13.432;2022-09-01T06:06:27;101790.00;;;18.40
21336;BMP180;10826;52.536;13.432;2022-09-01T06:08:55;101790.00;;;18.50
21336;BMP180;10826;52.536;13.432;2022-09-01T06:11:25;101751.00;;;18.60
21336;BMP180;10826;52.536;13.432;2022-09-01T06:13:53;101797.00;;;18.70
21336;BMP180;10826;52.536;13.432;2022-09-01T06:16:21;101798.00;;;18.80
21336;BMP180;10826;52.536;13.432;2022-09-01T06:18:50;101779.00;;;18.90
21336;BMP180;10826;52.536;13.432;2022-09-01T06:21:21;101770.00;;;19.00
21336;BMP180;10826;52.536;13.432;2022-09-01T06:23:50;101797.00;;;19.20
21336;BMP180;10826;52.536;13.432;2022-09-01T06:26:32;101795.00;;;19.30
21336;BMP180;10826;52.536;13.432;2022-09-01T06:29:04;101795.00;;;19.40
21336;BMP180;10826;52.536;13.432;2022-09-01T06:31:33;101792.00;;;19.40
21336;BMP180;10826;52.536;13.432;2022-09-01T06:34:06;101799.00;;;19.50
21336;BMP180;10826;52.536;13.432;2022-09-01T06:36:36;101737.00;;;19.50
21336;BMP180;10826;52.536;13.432;2022-09-01T06:39:06;101770.00;;;19.40
21336;BMP180;10826;52.536;13.432;2022-09-01T06:41:33;101794.00;;;19.60
21336;BMP180;10826;52.536;13.432;2022-09-01T06:44:24;101744.00;;;19.70
21336;BMP180;10826;52.536;13.432;2022-09-01T06:46:51;101769.00;;;19.70
21336;BMP180;10826;52.536;13.432;2022-09-01T06:49:20;101809.00;;;19.50
21336;BMP180;10826;52.536;13.432;2022-09-01T06:51:46;101804.00;;;19.80
21336;BMP180;10826;52.536;13.432;2022-09-01T06:54:14;101795.00;;;20.00
21336;BMP180;10826;52.536;13.432;2022-09-01T06:56:41;101815.00;;;20.00
21336;BMP180;10826;52.536;13.432;2022-09-01T06:59:07;101805.00;;;19.90
21336;BMP180;10826;52.536;13.432;2022-09-01T07:01:35;101806.00;;;20.10
21336;BMP180;10826;52.536;13.432;2022-09-01T07:04:02;101818.00;;;20.10
21336;BMP180;10826;52.536;13.432;2022-09-01T07:06:28;101763.00;;;20.20
21336;BMP180;10826;52.536;13.432;2022-09-01T07:08:58;101805.00;;;20.20
21336;BMP180;10826;52.536;13.432;2022-09-01T07:11:30;101774.00;;;20.30
21336;BMP180;10826;52.536;13.432;2022-09-01T07:14:03;101821.00;;;20.30
21336;BMP180;10826;52.536;13.432;2022-09-01T07:16:36;101801.00;;;20.40
21336;BMP180;10826;52.536;13.432;2022-09-01T07:19:08;101791.00;;;20.40
21336;BMP180;10826;52.536;13.432;2022-09-01T07:21:41;101820.00;;;20.40
21336;BMP180;10826;52.536;13.432;2022-09-01T07:24:09;101800.00;;;20.50
21336;BMP180;10826;52.536;13.432;2022-09-01T07:26:37;101821.00;;;20.60
21336;BMP180;10826;52.536;13.432;2022-09-01T07:29:05;101816.00;;;20.70
21336;BMP180;10826;52.536;13.432;2022-09-01T07:31:35;101807.00;;;20.70
21336;BMP180;10826;52.536;13.432;2022-09-01T07:34:09;101800.00;;;20.80
21336;BMP180;10826;52.536;13.432;2022-09-01T07:36:43;101796.00;;;20.90
21336;BMP180;10826;52.536;13.432;2022-09-01T07:39:11;101817.00;;;20.90
21336;BMP180;10826;52.536;13.432;2022-09-01T07:41:39;101815.00;;;20.80
21336;BMP180;10826;52.536;13.432;2022-09-01T07:44:07;101813.00;;;20.90
21336;BMP180;10826;52.536;13.432;2022-09-01T07:46:35;101811.00;;;20.80
21336;BMP180;10826;52.536;13.432;2022-09-01T07:49:02;101817.00;;;20.90
21336;BMP180;10826;52.536;13.432;2022-09-01T07:51:29;101807.00;;;20.90
21336;BMP180;10826;52.536;13.432;2022-09-01T07:53:57;101807.00;;;20.90
21336;BMP180;10826;52.536;13.432;2022-09-01T07:56:24;101820.00;;;20.90
21336;BMP180;10826;52.536;13.432;2022-09-01T07:58:51;101816.00;;;20.80
21336;BMP180;10826;52.536;13.432;2022-09-01T08:01:25;101826.00;;;21.00
21336;BMP180;10826;52.536;13.432;2022-09-01T08:03:56;101818.00;;;21.10
21336;BMP180;10826;52.536;13.432;2022-09-01T08:06:26;101835.00;;;21.10
21336;BMP180;10826;52.536;13.432;2022-09-01T08:08:55;101826.00;;;21.10
21336;BMP180;10826;52.536;13.432;2022-09-01T08:11:28;101827.00;;;21.10
21336;BMP180;10826;52.536;13.432;2022-09-01T08:13:56;101823.00;;;21.20
21336;BMP180;10826;52.536;13.432;2022-09-01T08:16:29;101840.00;;;21.30
21336;BMP180;10826;52.536;13.432;2022-09-01T08:18:56;101808.00;;;21.40
21336;BMP180;10826;52.536;13.432;2022-09-01T08:21:24;101781.00;;;21.50
21336;BMP180;10826;52.536;13.432;2022-09-01T08:23:53;101810.00;;;21.50
21336;BMP180;10826;52.536;13.432;2022-09-01T08:26:24;101777.00;;;21.60
21336;BMP180;10826;52.536;13.432;2022-09-01T08:28:52;101829.00;;;21.60
21336;BMP180;10826;52.536;13.432;2022-09-01T08:31:20;101818.00;;;21.50
21336;BMP180;10826;52.536;13.432;2022-09-01T08:33:48;101809.00;;;21.60
21336;BMP180;10826;52.536;13.432;2022-09-01T08:36:16;101809.00;;;21.60
21336;BMP180;10826;52.536;13.432;2022-09-01T08:38:42;101823.00;;;21.60
21336;BMP180;10826;52.536;13.432;2022-09-01T08:41:40;101831.00;;;21.60
21336;BMP180;10826;52.536;13.432;2022-09-01T08:44:28;101824.00;;;21.70
21336;BMP180;10826;52.536;13.432;2022-09-01T08:47:06;101826.00;;;21.70
21336;BMP180;10826;52.536;13.432;2022-09-01T08:49:35;101823.00;;;21.80
21336;BMP180;10826;52.536;13.432;2022-09-01T08:52:16;101820.00;;;21.90
21336;BMP180;10826;52.536;13.432;2022-09-01T08:55:01;101815.00;;;22.00
21336;BMP180;10826;52.536;13.432;2022-09-01T08:57:38;101816.00;;;22.00
21336;BMP180;10826;52.536;13.432;2022-09-01T09:00:09;101820.00;;;22.10
21336;BMP180;10826;52.536;13.432;2022-09-01T09:06:22;101820.00;;;22.30
21336;BMP180;10826;52.536;13.432;2022-09-01T09:08:54;101818.00;;;22.30
21336;BMP180;10826;52.536;13.432;2022-09-01T09:11:49;101801.00;;;22.40
21336;BMP180;10826;52.536;13.432;2022-09-01T09:14:31;101787.00;;;22.50
21336;BMP180;10826;52.536;13.432;2022-09-01T09:17:02;101798.00;;;22.60
21336;BMP180;10826;52.536;13.432;2022-09-01T09:19:43;101811.00;;;22.80
21336;BMP180;10826;52.536;13.432;2022-09-01T09:22:17;101814.00;;;22.80
21336;BMP180;10826;52.536;13.432;2022-09-01T09:27:33;101791.00;;;22.80
21336;BMP180;10826;52.536;13.432;2022-09-01T09:30:07;101809.00;;;22.90
21336;BMP180;10826;52.536;13.432;2022-09-01T09:33:04;101810.00;;;23.00
21336;BMP180;10826;52.536;13.432;2022-09-01T09:35:41;101801.00;;;23.00
21336;BMP180;10826;52.536;13.432;2022-09-01T09:41:20;101810.00;;;22.90
21336;BMP180;10826;52.536;13.432;2022-09-01T09:46:43;101804.00;;;23.10
21336;BMP180;10826;52.536;13.432;2022-09-01T09:49:25;101808.00;;;23.10
21336;BMP180;10826;52.536;13.432;2022-09-01T09:52:14;101811.00;;;23.20
21336;BMP180;10826;52.536;13.432;2022-09-01T09:57:48;101782.00;;;23.50
21336;BMP180;10826;52.536;13.432;2022-09-01T10:00:33;101791.00;;;23.60
21336;BMP180;10826;52.536;13.432;2022-09-01T10:03:08;101807.00;;;23.60
21336;BMP180;10826;52.536;13.432;2022-09-01T10:05:47;101805.00;;;23.70
21336;BMP180;10826;52.536;13.432;2022-09-01T10:11:05;101808.00;;;23.80
21336;BMP180;10826;52.536;13.432;2022-09-01T10:13:32;101788.00;;;23.90
21336;BMP180;10826;52.536;13.432;2022-09-01T10:16:24;101796.00;;;23.90
21336;BMP180;10826;52.536;13.432;2022-09-01T10:18:51;101773.00;;;23.90
21336;BMP180;10826;52.536;13.432;2022-09-01T10:21:32;101800.00;;;23.90
21336;BMP180;10826;52.536;13.432;2022-09-01T10:24:22;101785.00;;;23.90
21336;BMP180;10826;52.536;13.432;2022-09-01T10:26:57;101792.00;;;23.90
21336;BMP180;10826;52.536;13.432;2022-09-01T10:29:31;101752.00;;;24.00
21336;BMP180;10826;52.536;13.432;2022-09-01T10:32:00;101787.00;;;24.00
21336;BMP180;10826;52.536;13.432;2022-09-01T10:34:36;101800.00;;;24.00
21336;BMP180;10826;52.536;13.432;2022-09-01T10:37:05;101791.00;;;24.20
21336;BMP180;10826;52.536;13.432;2022-09-01T10:39:32;101804.00;;;24.10
21336;BMP180;10826;52.536;13.432;2022-09-01T10:42:00;101788.00;;;24.30
21336;BMP180;10826;52.536;13.432;2022-09-01T10:44:36;101781.00;;;24.40
21336;BMP180;10826;52.536;13.432;2022-09-01T10:47:30;101792.00;;;24.50
21336;BMP180;10826;52.536;13.432;2022-09-01T10:50:29;101779.00;;;24.60
21336;BMP180;10826;52.536;13.432;2022-09-01T10:53:06;101781.00;;;24.70
21336;BMP180;10826;52.536;13.432;2022-09-01T10:55:45;101777.00;;;24.70
21336;BMP180;10826;52.536;13.432;2022-09-01T10:58:33;101782.00;;;24.80
21336;BMP180;10826;52.536;13.432;2022-09-01T11:01:01;101786.00;;;24.80
21336;BMP180;10826;52.536;13.432;2022-09-01T11:06:02;101781.00;;;25.00
21336;BMP180;10826;52.536;13.432;2022-09-01T11:13:58;101786.00;;;25.20
21336;BMP180;10826;52.536;13.432;2022-09-01T11:16:38;101787.00;;;25.30
21336;BMP180;10826;52.536;13.432;2022-09-01T11:28:00;101780.00;;;25.00
21336;BMP180;10826;52.536;13.432;2022-09-01T11:30:45;101780.00;;;24.80
21336;BMP180;10826;52.536;13.432;2022-09-01T11:33:28;101773.00;;;24.90
21336;BMP180;10826;52.536;13.432;2022-09-01T11:36:33;101768.00;;;25.10
21336;BMP180;10826;52.536;13.432;2022-09-01T11:42:19;101774.00;;;25.60
21336;BMP180;10826;52.536;13.432;2022-09-01T11:44:51;101769.00;;;25.60
21336;BMP180;10826;52.536;13.432;2022-09-01T11:47:24;101776.00;;;25.50
21336;BMP180;10826;52.536;13.432;2022-09-01T11:50:04;101778.00;;;25.70
21336;BMP180;10826;52.536;13.432;2022-09-01T11:52:35;101773.00;;;25.60
21336;BMP180;10826;52.536;13.432;2022-09-01T11:55:05;101780.00;;;25.60
21336;BMP180;10826;52.536;13.432;2022-09-01T11:57:36;101760.00;;;25.70
21336;BMP180;10826;52.536;13.432;2022-09-01T12:00:11;101780.00;;;25.80
21336;BMP180;10826;52.536;13.432;2022-09-01T12:02:50;101780.00;;;25.80
21336;BMP180;10826;52.536;13.432;2022-09-01T12:05:34;101776.00;;;25.80
21336;BMP180;10826;52.536;13.432;2022-09-01T12:08:14;101776.00;;;25.80
21336;BMP180;10826;52.536;13.432;2022-09-01T12:10:43;101770.00;;;25.80
21336;BMP180;10826;52.536;13.432;2022-09-01T12:13:18;101769.00;;;25.90
21336;BMP180;10826;52.536;13.432;2022-09-01T12:16:00;101769.00;;;25.90
21336;BMP180;10826;52.536;13.432;2022-09-01T12:18:35;101773.00;;;25.80
21336;BMP180;10826;52.536;13.432;2022-09-01T12:21:06;101778.00;;;26.00
21336;BMP180;10826;52.536;13.432;2022-09-01T12:23:39;101766.00;;;26.00
21336;BMP180;10826;52.536;13.432;2022-09-01T12:26:16;101785.00;;;26.10
21336;BMP180;10826;52.536;13.432;2022-09-01T12:28:43;101784.00;;;26.00
21336;BMP180;10826;52.536;13.432;2022-09-01T12:31:27;101769.00;;;26.10
21336;BMP180;10826;52.536;13.432;2022-09-01T12:33:55;101776.00;;;26.10
21336;BMP180;10826;52.536;13.432;2022-09-01T12:36:35;101776.00;;;26.10
21336;BMP180;10826;52.536;13.432;2022-09-01T12:42:09;101774.00;;;26.10
21336;BMP180;10826;52.536;13.432;2022-09-01T12:47:05;101771.00;;;25.90
21336;BMP180;10826;52.536;13.432;2022-09-01T12:49:47;101738.00;;;25.80
21336;BMP180;10826;52.536;13.432;2022-09-01T12:52:24;101757.00;;;25.70
21336;BMP180;10826;52.536;13.432;2022-09-01T12:55:36;101761.00;;;25.60
21336;BMP180;10826;52.536;13.432;2022-09-01T12:58:07;101732.00;;;25.50
21336;BMP180;10826;52.536;13.432;2022-09-01T13:00:52;101719.00;;;25.60
21336;BMP180;10826;52.536;13.432;2022-09-01T13:03:18;101729.00;;;25.60
21336;BMP180;10826;52.536;13.432;2022-09-01T13:05:49;101750.00;;;25.70
21336;BMP180;10826;52.536;13.432;2022-09-01T13:08:20;101736.00;;;25.80
21336;BMP180;10826;52.536;13.432;2022-09-01T13:10:51;101701.00;;;26.00
21336;BMP180;10826;52.536;13.432;2022-09-01T13:13:20;101649.00;;;26.20
21336;BMP180;10826;52.536;13.432;2022-09-01T13:15:50;101752.00;;;26.20
21336;BMP180;10826;52.536;13.432;2022-09-01T13:18:19;101750.00;;;26.30
21336;BMP180;10826;52.536;13.432;2022-09-01T13:20:47;101750.00;;;26.40
21336;BMP180;10826;52.536;13.432;2022-09-01T13:23:14;101730.00;;;26.50
21336;BMP180;10826;52.536;13.432;2022-09-01T13:25:40;101732.00;;;26.40
21336;BMP180;10826;52.536;13.432;2022-09-01T13:28:09;101744.00;;;26.30
21336;BMP180;10826;52.536;13.432;2022-09-01T13:30:36;101735.00;;;26.20
21336;BMP180;10826;52.536;13.432;2022-09-01T13:33:03;101755.00;;;26.20
21336;BMP180;10826;52.536;13.432;2022-09-01T13:35:30;101720.00;;;26.10
21336;BMP180;10826;52.536;13.432;2022-09-01T13:37:56;101746.00;;;26.10
21336;BMP180;10826;52.536;13.432;2022-09-01T13:40:23;101735.00;;;26.00
21336;BMP180;10826;52.536;13.432;2022-09-01T13:42:51;101741.00;;;26.00
21336;BMP180;10826;52.536;13.432;2022-09-01T13:45:21;101725.00;;;26.10
21336;BMP180;10826;52.536;13.432;2022-09-01T13:47:48;101746.00;;;26.00
21336;BMP180;10826;52.536;13.432;2022-09-01T13:50:19;101740.00;;;26.10
21336;BMP180;10826;52.536;13.432;2022-09-01T13:52:54;101740.00;;;26.10
21336;BMP180;10826;52.536;13.432;2022-09-01T13:55:30;101691.00;;;26.10
21336;BMP180;10826;52.536;13.432;2022-09-01T13:57:56;101744.00;;;26.20
21336;BMP180;10826;52.536;13.432;2022-09-01T14:00:31;101738.00;;;26.30
21336;BMP180;10826;52.536;13.432;2022-09-01T14:03:02;101710.00;;;26.40
21336;BMP180;10826;52.536;13.432;2022-09-01T14:05:37;101743.00;;;26.60
21336;BMP180;10826;52.536;13.432;2022-09-01T14:08:05;101695.00;;;26.60
21336;BMP180;10826;52.536;13.432;2022-09-01T14:10:38;101732.00;;;26.80
21336;BMP180;10826;52.536;13.432;2022-09-01T14:13:04;101715.00;;;26.90
21336;BMP180;10826;52.536;13.432;2022-09-01T14:15:33;101720.00;;;27.00
21336;BMP180;10826;52.536;13.432;2022-09-01T14:17:59;101729.00;;;26.90
21336;BMP180;10826;52.536;13.432;2022-09-01T14:20:31;101739.00;;;26.90
21336;BMP180;10826;52.536;13.432;2022-09-01T14:23:03;101731.00;;;26.70
21336;BMP180;10826;52.536;13.432;2022-09-01T14:25:30;101712.00;;;26.60
21336;BMP180;10826;52.536;13.432;2022-09-01T14:27:56;101702.00;;;26.60
21336;BMP180;10826;52.536;13.432;2022-09-01T14:30:25;101716.00;;;26.50
21336;BMP180;10826;52.536;13.432;2022-09-01T14:32:52;101707.00;;;26.50
21336;BMP180;10826;52.536;13.432;2022-09-01T14:35:22;101707.00;;;26.50
21336;BMP180;10826;52.536;13.432;2022-09-01T14:37:54;101712.00;;;26.40
21336;BMP180;10826;52.536;13.432;2022-09-01T14:40:22;101684.00;;;26.40
21336;BMP180;10826;52.536;13.432;2022-09-01T14:42:51;101695.00;;;26.20
21336;BMP180;10826;52.536;13.432;2022-09-01T14:45:22;101696.00;;;26.30
21336;BMP180;10826;52.536;13.432;2022-09-01T14:47:51;101651.00;;;26.40
21336;BMP180;10826;52.536;13.432;2022-09-01T14:50:20;101680.00;;;26.40
21336;BMP180;10826;52.536;13.432;2022-09-01T14:52:48;101672.00;;;26.30
21336;BMP180;10826;52.536;13.432;2022-09-01T14:55:16;101676.00;;;26.30